Portada
METAR-TAF:

METAR-TAF

Aeroports :

Caldwell, Nova Jersey, Estats Units d'Amèrica

latitud: 40-52-35N, longitud: 074-16-59W, altitud: 52 m

Observació

L'informe es va fer fa 30 minuts, a les 23:53 UTC
Vent 7 kt del Nord/Nord-Est
Temperatura 23°C
Humitat 89%
Pressió 1019 hPa
Visibilitat: 6.4 km
Escasses núvols a una alçada de 7000 ft
Escasses núvols a una alçada de 8500 ft
Cel ennuvolat a una alçada de 11000 ft
pluja

METAR: KCDW 072353Z 03007KT 4SM RA FEW070 FEW085 BKN110 23/21 A3010 RMK AO2 LTG DSNT SE AND SW RAB04 TSB08E23 SLP196 P0011 60011 T02330206 10272 20233 58002

Hora: 20:23 (00:23 UTC)


TAF: manca

Observacions i pronòstics meteorològics de més de 4000 aeroports (METAR i TAF).

Les estacions disponibles són els punts grocs i vermells al mapa.

Posi el ratolí al punt desitjat per veure el nom de l'estació.

Feu clic per veure les observacions i els pronòstics meteorològics.

Per canviar el mapa: feu clic els botons verds amb una creu de color negre per apropar; al botó verd amb un guió per allunyar la imatge; o en les fletxes verdes per a mapes adjacents.


METAR-TAF: